createdAt,value
2022-11-21T00:02:07.156Z,82.10
2022-11-21T00:04:35.408Z,82.18
2022-11-21T00:07:03.266Z,82.38
2022-11-21T00:09:33.997Z,82.23
2022-11-21T00:12:01.875Z,81.81
2022-11-21T00:14:29.935Z,81.51
2022-11-21T00:16:57.933Z,80.85
2022-11-21T00:19:27.205Z,80.91
2022-11-21T00:21:55.125Z,80.56
2022-11-21T00:24:23.172Z,81.72
2022-11-21T00:26:51.122Z,80.66
2022-11-21T00:29:18.926Z,81.17
2022-11-21T00:31:47.008Z,80.57
2022-11-21T00:34:16.596Z,80.18
2022-11-21T00:36:46.046Z,80.80
2022-11-21T00:39:14.036Z,80.88
2022-11-21T00:41:42.134Z,81.24
2022-11-21T00:44:13.139Z,81.21
2022-11-21T00:46:41.089Z,80.98
2022-11-21T00:49:08.933Z,81.17
2022-11-21T00:51:36.812Z,80.64
2022-11-21T00:54:06.148Z,81.02
2022-11-21T00:56:34.008Z,80.98
2022-11-21T00:59:02.184Z,80.84
2022-11-21T01:01:30.253Z,81.36
2022-11-21T01:03:58.853Z,81.15
2022-11-21T01:06:26.706Z,81.07
2022-11-21T01:08:54.684Z,81.08
2022-11-21T01:11:24.060Z,81.22
2022-11-21T01:13:54.918Z,80.44
2022-11-21T01:16:25.446Z,81.29
2022-11-21T01:18:53.399Z,81.24
2022-11-21T01:21:23.724Z,81.49
2022-11-21T01:23:51.692Z,81.09
2022-11-21T01:26:21.879Z,80.67
2022-11-21T01:28:51.648Z,80.31
2022-11-21T01:31:21.939Z,80.09
2022-11-21T01:33:50.311Z,79.24
2022-11-21T01:36:20.031Z,79.34
2022-11-21T01:38:49.719Z,80.09
2022-11-21T01:41:22.348Z,79.76
2022-11-21T01:43:51.964Z,79.75
2022-11-21T01:46:21.157Z,78.70
2022-11-21T01:48:55.633Z,78.32
2022-11-21T01:51:27.390Z,78.33
2022-11-21T01:54:00.910Z,77.54
2022-11-21T01:56:43.657Z,77.39
2022-11-21T01:59:19.149Z,75.55
2022-11-21T02:01:48.488Z,77.10
2022-11-21T02:04:16.930Z,76.87
2022-11-21T02:06:45.671Z,75.81
2022-11-21T02:09:13.883Z,76.50
2022-11-21T02:11:47.603Z,76.42
2022-11-21T02:14:17.159Z,76.15
2022-11-21T02:16:45.639Z,76.32
2022-11-21T02:19:23.943Z,75.81
2022-11-21T02:21:57.127Z,75.83
2022-11-21T02:24:31.018Z,75.85
2022-11-21T02:27:01.762Z,75.91
2022-11-21T02:29:29.956Z,75.58
2022-11-21T02:32:00.994Z,75.02
2022-11-21T02:34:29.255Z,74.88
2022-11-21T02:36:58.060Z,74.81
2022-11-21T02:39:32.298Z,73.50
2022-11-21T02:42:09.003Z,74.65
2022-11-21T02:44:47.927Z,74.49
2022-11-21T02:47:16.122Z,74.04
2022-11-21T02:49:52.139Z,74.15
2022-11-21T02:52:19.971Z,74.22
2022-11-21T02:54:51.270Z,73.33
2022-11-21T02:57:20.844Z,73.90
2022-11-21T02:59:48.780Z,73.53
2022-11-21T03:02:16.737Z,73.13
2022-11-21T03:04:45.383Z,73.02
2022-11-21T03:07:13.515Z,73.37
2022-11-21T03:09:41.540Z,72.77
2022-11-21T03:12:10.887Z,73.12
2022-11-21T03:14:40.160Z,73.95
2022-11-21T03:17:09.926Z,73.42
2022-11-21T03:19:37.854Z,73.69
2022-11-21T03:22:05.885Z,73.03
2022-11-21T03:24:33.863Z,73.19
2022-11-21T03:27:02.018Z,73.71
2022-11-21T03:29:30.001Z,74.52
2022-11-21T03:31:59.844Z,73.22
2022-11-21T03:34:28.053Z,74.61
2022-11-21T03:36:57.949Z,73.85
2022-11-21T03:39:26.027Z,74.53
2022-11-21T03:41:54.055Z,74.90
2022-11-21T03:44:22.188Z,74.38
2022-11-21T03:46:50.571Z,74.32
2022-11-21T03:49:20.140Z,73.98
2022-11-21T03:51:48.403Z,74.32
2022-11-21T03:54:16.651Z,74.09
2022-11-21T03:56:44.614Z,74.53
2022-11-21T03:59:12.515Z,74.38
2022-11-21T04:01:40.489Z,74.36
2022-11-21T04:04:08.986Z,74.34
2022-11-21T04:06:38.313Z,74.36
2022-11-21T04:09:06.147Z,74.29
2022-11-21T04:11:34.131Z,74.67
2022-11-21T04:14:01.964Z,73.78
2022-11-21T04:16:29.774Z,74.06
2022-11-21T04:18:57.689Z,74.20
2022-11-21T04:21:25.510Z,74.97
2022-11-21T04:23:55.195Z,75.47
2022-11-21T04:26:23.110Z,75.80
2022-11-21T04:28:52.259Z,76.55
2022-11-21T04:31:20.125Z,76.51
2022-11-21T04:33:48.124Z,76.14
2022-11-21T04:36:16.064Z,76.25
2022-11-21T04:38:44.179Z,76.59
2022-11-21T04:41:14.795Z,76.06
2022-11-21T04:43:43.835Z,77.21
2022-11-21T04:46:11.809Z,77.64
2022-11-21T04:48:40.137Z,77.48
2022-11-21T04:51:08.089Z,77.67
2022-11-21T04:53:40.008Z,77.16
2022-11-21T04:56:10.802Z,77.19
2022-11-21T04:58:40.126Z,77.79
2022-11-21T05:01:08.940Z,77.56
2022-11-21T05:03:37.515Z,78.05
2022-11-21T05:06:05.599Z,78.58
2022-11-21T05:08:33.644Z,78.77
2022-11-21T05:11:19.334Z,78.09
2022-11-21T05:13:48.637Z,78.63
2022-11-21T05:16:16.430Z,79.08
2022-11-21T05:18:44.641Z,78.66
2022-11-21T05:21:12.745Z,78.91
2022-11-21T05:23:40.660Z,79.15
2022-11-21T05:26:08.671Z,79.38
2022-11-21T05:28:37.113Z,79.60
2022-11-21T05:31:06.631Z,79.34
2022-11-21T05:33:34.607Z,79.85
2022-11-21T05:36:02.480Z,79.98
2022-11-21T05:38:30.331Z,80.22
2022-11-21T05:40:58.298Z,80.27
2022-11-21T05:43:43.732Z,79.98
2022-11-21T05:46:16.793Z,80.31
2022-11-21T05:48:45.242Z,80.87
2022-11-21T05:51:13.664Z,80.21
2022-11-21T05:53:41.711Z,80.56
2022-11-21T05:56:11.754Z,81.13
2022-11-21T05:58:39.696Z,81.15
2022-11-21T06:01:08.982Z,81.34
2022-11-21T06:03:39.289Z,81.36
2022-11-21T06:06:08.867Z,81.42
2022-11-21T06:08:39.780Z,81.67
2022-11-21T06:11:09.107Z,81.93
2022-11-21T06:13:37.563Z,82.33
2022-11-21T06:16:08.070Z,82.09
2022-11-21T06:18:39.479Z,81.49
2022-11-21T06:21:09.585Z,81.07
2022-11-21T06:23:39.144Z,81.11
2022-11-21T06:26:09.159Z,81.50
2022-11-21T06:28:39.502Z,80.69
2022-11-21T06:31:08.386Z,81.12
2022-11-21T06:33:39.002Z,80.12
2022-11-21T06:36:09.564Z,80.34
2022-11-21T06:38:39.263Z,80.30
2022-11-21T06:41:07.415Z,80.04
2022-11-21T06:43:35.504Z,79.41
2022-11-21T06:46:04.706Z,79.27
2022-11-21T06:48:32.907Z,79.40
2022-11-21T06:51:06.908Z,79.78
2022-11-21T06:53:37.835Z,80.17
2022-11-21T06:56:06.802Z,80.16
2022-11-21T06:58:34.804Z,80.84
2022-11-21T07:01:06.533Z,80.88
2022-11-21T07:03:35.305Z,81.20
2022-11-21T07:06:05.236Z,80.63
2022-11-21T07:08:36.289Z,81.05
2022-11-21T07:13:54.159Z,80.98
2022-11-21T07:16:22.191Z,81.10
2022-11-21T07:18:50.117Z,81.49
2022-11-21T07:21:19.397Z,80.55
2022-11-21T07:23:51.872Z,81.79
2022-11-21T07:26:22.373Z,81.27
2022-11-21T07:28:50.515Z,81.00
2022-11-21T07:31:18.623Z,81.01
2022-11-21T07:33:48.051Z,80.97
2022-11-21T07:36:18.565Z,81.09
2022-11-21T07:38:49.053Z,81.19
2022-11-21T07:41:16.941Z,81.12
2022-11-21T07:43:44.786Z,80.98
2022-11-21T07:46:12.675Z,81.30
2022-11-21T07:48:40.661Z,81.33
2022-11-21T07:51:08.839Z,80.89
2022-11-21T07:53:36.970Z,80.86
2022-11-21T07:56:09.632Z,80.85
2022-11-21T07:58:40.930Z,80.60
2022-11-21T08:01:09.229Z,80.29
2022-11-21T08:03:37.093Z,80.07
2022-11-21T08:06:07.800Z,80.38
2022-11-21T08:08:36.006Z,80.35
2022-11-21T08:11:07.705Z,80.24
2022-11-21T08:13:36.129Z,80.32
2022-11-21T08:16:04.860Z,79.65
2022-11-21T08:18:33.216Z,79.06
2022-11-21T08:21:02.573Z,78.71
2022-11-21T08:23:30.615Z,79.36
2022-11-21T08:25:59.172Z,78.98
2022-11-21T08:28:29.156Z,78.64
2022-11-21T08:30:57.910Z,79.15
2022-11-21T08:33:26.192Z,78.70
2022-11-21T08:35:54.398Z,78.79
2022-11-21T08:38:22.855Z,77.91
2022-11-21T08:41:17.226Z,77.96
2022-11-21T08:43:47.361Z,77.24
2022-11-21T08:46:15.717Z,78.33
2022-11-21T08:48:43.872Z,77.84
2022-11-21T08:51:12.208Z,77.52
2022-11-21T08:53:40.898Z,77.50
2022-11-21T08:56:09.204Z,77.47
2022-11-21T08:58:37.244Z,78.03
2022-11-21T09:01:06.861Z,77.84
2022-11-21T09:03:35.373Z,77.07
2022-11-21T09:06:03.407Z,76.51
2022-11-21T09:08:32.149Z,77.51
2022-11-21T09:11:00.173Z,77.46
2022-11-21T09:13:28.784Z,76.81
2022-11-21T09:16:19.118Z,76.79
2022-11-21T09:18:52.498Z,77.15
2022-11-21T09:21:21.332Z,77.88
2022-11-21T09:23:49.408Z,77.88
2022-11-21T09:26:17.525Z,77.52
2022-11-21T09:28:47.001Z,77.53
2022-11-21T09:31:15.064Z,77.72
2022-11-21T09:33:42.944Z,77.19
2022-11-21T09:36:12.257Z,75.92
2022-11-21T09:38:40.106Z,75.41
2022-11-21T09:41:33.282Z,74.55
2022-11-21T09:44:10.762Z,74.19
2022-11-21T09:46:47.955Z,73.47
2022-11-21T09:49:17.300Z,72.89
2022-11-21T09:51:47.353Z,73.13
2022-11-21T09:54:21.395Z,72.47
2022-11-21T09:56:50.269Z,73.06
2022-11-21T09:59:33.537Z,73.19
2022-11-21T10:02:02.917Z,72.47
2022-11-21T10:04:32.306Z,73.37
2022-11-21T10:07:07.889Z,72.96
2022-11-21T10:09:51.129Z,73.32
2022-11-21T10:12:38.688Z,73.26
2022-11-21T10:15:20.491Z,73.43
2022-11-21T10:18:03.702Z,73.93
2022-11-21T10:20:45.701Z,74.35
2022-11-21T10:23:51.601Z,74.34
2022-11-21T10:26:33.065Z,73.42
2022-11-21T10:29:08.048Z,74.54
2022-11-21T10:31:41.286Z,75.17
2022-11-21T10:34:13.874Z,75.29
2022-11-21T10:36:47.566Z,74.25
2022-11-21T10:39:21.793Z,72.93
2022-11-21T10:41:54.679Z,73.85
2022-11-21T10:44:44.806Z,72.47
2022-11-21T10:47:27.801Z,72.76
2022-11-21T10:50:05.250Z,71.99
2022-11-21T10:52:36.463Z,72.30
2022-11-21T10:55:12.228Z,73.39
2022-11-21T10:57:44.627Z,71.00
2022-11-21T11:00:22.513Z,69.89
2022-11-21T11:03:05.764Z,69.73
2022-11-21T11:05:36.629Z,70.15
2022-11-21T11:08:07.773Z,69.59
2022-11-21T11:10:38.441Z,69.14
2022-11-21T11:13:49.432Z,69.46
2022-11-21T11:16:19.528Z,69.36
2022-11-21T11:18:53.146Z,68.72
2022-11-21T11:21:22.974Z,68.03
2022-11-21T11:23:52.558Z,67.83
2022-11-21T11:26:35.148Z,66.35
2022-11-21T11:29:13.103Z,66.58
2022-11-21T11:31:42.993Z,64.39
2022-11-21T11:34:14.992Z,66.13
2022-11-21T11:37:09.612Z,64.74
2022-11-21T11:39:41.192Z,63.68
2022-11-21T11:42:40.710Z,63.71
2022-11-21T11:45:39.965Z,64.17
2022-11-21T11:48:10.379Z,63.84
2022-11-21T11:50:42.873Z,62.72
2022-11-21T11:53:16.694Z,64.01
2022-11-21T11:55:48.483Z,62.40
2022-11-21T11:58:25.470Z,61.57
2022-11-21T12:01:01.877Z,62.51
2022-11-21T12:03:41.424Z,63.27
2022-11-21T12:06:17.035Z,63.79
2022-11-21T12:08:53.200Z,63.19
2022-11-21T12:11:56.975Z,63.08
2022-11-21T12:15:11.175Z,62.35
2022-11-21T12:17:43.409Z,62.98
2022-11-21T12:20:20.726Z,63.35
2022-11-21T12:22:53.375Z,62.59
2022-11-21T12:25:26.034Z,63.15
2022-11-21T12:27:57.220Z,62.08
2022-11-21T12:30:46.767Z,62.14
2022-11-21T12:33:21.725Z,62.05
2022-11-21T12:36:17.445Z,62.06
2022-11-21T12:39:14.246Z,62.01
2022-11-21T12:42:07.338Z,61.90
2022-11-21T12:44:53.726Z,61.44
2022-11-21T12:47:56.635Z,60.73
2022-11-21T12:50:47.934Z,61.54
2022-11-21T12:53:44.825Z,61.48
2022-11-21T12:56:22.697Z,60.79
2022-11-21T12:58:55.473Z,61.11
2022-11-21T13:01:32.600Z,61.08
2022-11-21T13:04:05.448Z,61.27
2022-11-21T13:06:38.016Z,60.87
2022-11-21T13:09:11.052Z,59.99
2022-11-21T13:12:00.158Z,61.09
2022-11-21T13:14:38.494Z,60.69
2022-11-21T13:17:23.316Z,59.26
2022-11-21T13:19:58.000Z,59.90
2022-11-21T13:22:51.824Z,61.45
2022-11-21T13:25:40.683Z,62.37
2022-11-21T13:28:38.802Z,62.15
2022-11-21T13:31:32.802Z,63.12
2022-11-21T13:34:01.633Z,63.21
2022-11-21T13:36:42.299Z,62.57
2022-11-21T13:39:37.732Z,62.22
2022-11-21T13:42:31.011Z,63.33
2022-11-21T13:44:59.546Z,63.96
2022-11-21T13:48:01.013Z,64.16
2022-11-21T13:50:43.845Z,64.71
2022-11-21T13:53:30.746Z,65.07
2022-11-21T13:56:01.325Z,64.70
2022-11-21T13:58:41.342Z,64.61
2022-11-21T14:01:27.377Z,64.24
2022-11-21T14:04:34.502Z,64.52
2022-11-21T14:07:22.789Z,64.88
2022-11-21T14:09:54.171Z,65.39
2022-11-21T14:12:31.523Z,65.60
2022-11-21T14:15:21.784Z,65.47
2022-11-21T14:17:51.475Z,65.84
2022-11-21T14:20:23.264Z,66.29
2022-11-21T14:23:06.734Z,66.17
2022-11-21T14:25:44.049Z,66.55
2022-11-21T14:28:16.781Z,66.53
2022-11-21T14:30:45.954Z,66.61
2022-11-21T14:33:27.301Z,66.63
2022-11-21T14:35:59.381Z,66.70
2022-11-21T14:38:28.717Z,66.94
2022-11-21T14:41:31.392Z,67.04
2022-11-21T14:44:07.299Z,67.59
2022-11-21T14:46:36.861Z,67.46
2022-11-21T14:49:30.323Z,67.34
2022-11-21T14:52:16.599Z,67.21
2022-11-21T14:55:22.280Z,66.90
2022-11-21T14:57:43.942Z,67.49
2022-11-21T15:00:43.352Z,67.57
2022-11-21T15:03:04.655Z,67.78
2022-11-21T15:06:00.863Z,66.76
2022-11-21T15:08:59.399Z,67.05
2022-11-21T15:11:14.261Z,67.21
2022-11-21T15:14:16.687Z,67.70
2022-11-21T15:16:35.279Z,67.32
2022-11-21T15:19:10.941Z,67.75
2022-11-21T15:21:46.550Z,68.12
2022-11-21T15:24:19.684Z,67.64
2022-11-21T15:26:50.558Z,68.01
2022-11-21T15:29:22.470Z,68.15
2022-11-21T15:32:09.151Z,68.86
2022-11-21T15:34:38.548Z,68.27
2022-11-21T15:37:13.491Z,69.03
2022-11-21T15:39:44.894Z,69.24
2022-11-21T15:42:38.364Z,69.89
2022-11-21T15:48:03.552Z,70.24
2022-11-21T15:50:31.688Z,70.94
2022-11-21T15:52:59.886Z,70.79
2022-11-21T15:55:29.834Z,70.49
2022-11-21T15:57:58.339Z,71.19
2022-11-21T16:00:26.357Z,71.50
2022-11-21T16:02:54.338Z,70.88
2022-11-21T16:05:24.357Z,70.57
2022-11-21T16:07:53.423Z,71.67
2022-11-21T16:10:27.460Z,71.25
2022-11-21T16:12:56.314Z,71.60
2022-11-21T16:15:24.866Z,71.09
2022-11-21T16:17:53.303Z,71.37
2022-11-21T16:20:21.611Z,70.52
2022-11-21T16:22:51.430Z,70.48
2022-11-21T16:25:20.841Z,71.24
2022-11-21T16:27:49.629Z,70.48
2022-11-21T16:30:17.836Z,71.29
2022-11-21T16:32:47.089Z,70.75
2022-11-21T16:35:15.118Z,70.89
2022-11-21T16:37:43.245Z,70.68
2022-11-21T16:40:13.743Z,70.35
2022-11-21T16:42:41.917Z,71.52
2022-11-21T16:45:10.614Z,71.25
2022-11-21T16:47:39.668Z,71.31
2022-11-21T16:50:09.943Z,70.99
2022-11-21T16:52:38.342Z,71.17
2022-11-21T16:55:06.987Z,71.25
2022-11-21T16:57:36.807Z,70.21
2022-11-21T17:00:06.521Z,70.94
2022-11-21T17:02:37.188Z,70.70
2022-11-21T17:05:07.642Z,70.68
2022-11-21T17:07:37.220Z,71.33
2022-11-21T17:10:06.089Z,71.21
2022-11-21T17:12:39.951Z,70.88
2022-11-21T17:15:10.223Z,71.09
2022-11-21T17:17:38.670Z,71.44
2022-11-21T17:20:10.742Z,71.52
2022-11-21T17:22:40.498Z,72.00
2022-11-21T17:25:11.415Z,70.97
2022-11-21T17:27:41.537Z,71.22
2022-11-21T17:30:10.801Z,70.83
2022-11-21T17:32:38.816Z,71.36
2022-11-21T17:35:07.705Z,72.25
2022-11-21T17:37:35.998Z,72.22
2022-11-21T17:40:07.056Z,72.07
2022-11-21T17:42:35.542Z,72.64
2022-11-21T17:45:05.909Z,72.85
2022-11-21T17:47:34.425Z,73.03
2022-11-21T17:50:06.388Z,72.66
2022-11-21T17:52:35.818Z,73.68
2022-11-21T17:55:03.768Z,73.50
2022-11-21T17:57:32.121Z,73.48
2022-11-21T18:00:01.380Z,73.77
2022-11-21T18:02:31.377Z,74.01
2022-11-21T18:04:59.414Z,73.92
2022-11-21T18:07:30.107Z,74.81
2022-11-21T18:10:14.218Z,75.61
2022-11-21T18:12:47.655Z,75.45
2022-11-21T18:15:15.661Z,75.33
2022-11-21T18:17:45.149Z,75.53
2022-11-21T18:20:13.731Z,76.38
2022-11-21T18:22:41.990Z,76.67
2022-11-21T18:25:10.413Z,76.92
2022-11-21T18:27:38.537Z,77.08
2022-11-21T18:30:07.480Z,76.55
2022-11-21T18:32:35.415Z,77.82
2022-11-21T18:35:05.117Z,77.75
2022-11-21T18:37:34.982Z,77.79
2022-11-21T18:40:02.952Z,77.66
2022-11-21T18:42:33.898Z,78.12
2022-11-21T18:45:02.049Z,78.82
2022-11-21T18:47:30.547Z,79.52
2022-11-21T18:49:58.816Z,79.29
2022-11-21T18:52:31.375Z,79.16
2022-11-21T18:54:59.321Z,79.69
2022-11-21T18:57:27.623Z,79.73
2022-11-21T18:59:55.761Z,79.98
2022-11-21T19:02:24.304Z,80.54
2022-11-21T19:04:52.235Z,79.81
2022-11-21T19:07:20.400Z,80.17
2022-11-21T19:09:49.761Z,79.84
2022-11-21T19:12:17.748Z,80.69
2022-11-21T19:14:45.645Z,80.59
2022-11-21T19:17:13.841Z,81.28
2022-11-21T19:19:41.767Z,80.89
2022-11-21T19:22:09.721Z,82.70
2022-11-21T19:24:37.926Z,82.78
2022-11-21T19:27:07.881Z,83.03
2022-11-21T19:29:35.730Z,82.94
2022-11-21T19:32:03.825Z,83.71
2022-11-21T19:34:31.753Z,82.94
2022-11-21T19:36:59.849Z,83.78
2022-11-21T19:39:28.007Z,83.59
2022-11-21T19:41:56.260Z,83.78
2022-11-21T19:44:25.557Z,83.81
2022-11-21T19:46:54.832Z,84.39
2022-11-21T19:49:22.654Z,83.99
2022-11-21T19:51:50.850Z,83.31
2022-11-21T19:54:18.967Z,83.38
2022-11-21T19:56:47.121Z,82.77
2022-11-21T19:59:15.811Z,82.62
2022-11-21T20:01:52.385Z,81.81
2022-11-21T20:04:21.090Z,82.05
2022-11-21T20:06:49.163Z,81.48
2022-11-21T20:09:19.356Z,81.66
2022-11-21T20:11:49.513Z,81.12
2022-11-21T20:14:22.265Z,81.21
2022-11-21T20:16:54.016Z,81.58
2022-11-21T20:19:24.159Z,81.07
2022-11-21T20:21:52.736Z,81.23
2022-11-21T20:24:22.901Z,80.70
2022-11-21T20:26:50.806Z,80.81
2022-11-21T20:29:18.780Z,80.65
2022-11-21T20:31:48.388Z,80.87
2022-11-21T20:34:18.228Z,81.62
2022-11-21T20:36:46.898Z,81.29
2022-11-21T20:39:16.565Z,81.61
2022-11-21T20:41:45.395Z,81.90
2022-11-21T20:47:04.169Z,80.86
2022-11-21T20:49:35.328Z,81.50
2022-11-21T20:54:51.246Z,80.68
2022-11-21T20:57:19.174Z,80.16
2022-11-21T20:59:47.305Z,80.34
2022-11-21T21:02:15.824Z,80.16
2022-11-21T21:04:45.209Z,79.74
2022-11-21T21:07:13.235Z,80.23
2022-11-21T21:09:41.319Z,79.94
2022-11-21T21:12:09.445Z,79.69
2022-11-21T21:14:37.339Z,80.17
2022-11-21T21:17:05.320Z,80.19
2022-11-21T21:19:33.333Z,80.14
2022-11-21T21:22:04.968Z,79.78
2022-11-21T21:24:33.243Z,80.00
2022-11-21T21:27:01.389Z,80.38
2022-11-21T21:29:29.671Z,80.78
2022-11-21T21:31:58.283Z,81.59
2022-11-21T21:34:26.810Z,81.88
2022-11-21T21:36:54.902Z,82.44
2022-11-21T21:39:27.182Z,82.63
2022-11-21T21:41:56.994Z,82.66
2022-11-21T21:44:31.483Z,82.66
2022-11-21T21:47:01.138Z,83.87
2022-11-21T21:49:29.348Z,83.70
2022-11-21T21:51:57.374Z,83.88
2022-11-21T21:54:27.067Z,83.79
2022-11-21T21:56:55.764Z,82.69
2022-11-21T21:59:23.948Z,83.00
2022-11-21T22:01:51.964Z,82.33
2022-11-21T22:04:19.883Z,81.84
2022-11-21T22:06:47.716Z,81.75
2022-11-21T22:09:18.783Z,81.13
2022-11-21T22:11:48.393Z,81.54
2022-11-21T22:14:17.369Z,81.61
2022-11-21T22:16:45.908Z,81.34
2022-11-21T22:19:16.246Z,80.24
2022-11-21T22:21:44.377Z,81.26
2022-11-21T22:24:25.357Z,80.51
2022-11-21T22:26:55.859Z,79.73
2022-11-21T22:29:23.896Z,80.35
2022-11-21T22:31:51.984Z,80.83
2022-11-21T22:34:20.203Z,80.04
2022-11-21T22:36:48.196Z,80.18
2022-11-21T22:39:17.409Z,80.61
2022-11-21T22:41:45.595Z,81.18
2022-11-21T22:44:15.043Z,80.47
2022-11-21T22:46:42.883Z,80.83
2022-11-21T22:49:10.986Z,80.68
2022-11-21T22:51:38.946Z,80.04
2022-11-21T22:54:07.306Z,80.12
2022-11-21T22:56:35.449Z,80.04
2022-11-21T22:59:03.295Z,79.83
2022-11-21T23:01:34.094Z,80.23
2022-11-21T23:04:02.216Z,79.84
2022-11-21T23:06:30.138Z,80.07
2022-11-21T23:08:58.655Z,80.02
2022-11-21T23:11:28.811Z,80.54
2022-11-21T23:13:57.694Z,80.87
2022-11-21T23:16:26.369Z,80.41
2022-11-21T23:18:56.831Z,81.10
2022-11-21T23:21:24.972Z,81.99
2022-11-21T23:23:52.877Z,81.79
2022-11-21T23:26:21.116Z,81.50
2022-11-21T23:28:49.215Z,82.20
2022-11-21T23:31:17.456Z,81.58
2022-11-21T23:33:45.629Z,81.47
2022-11-21T23:36:14.890Z,81.42
2022-11-21T23:38:42.833Z,81.40
2022-11-21T23:41:10.967Z,81.36
2022-11-21T23:43:38.987Z,81.45
2022-11-21T23:46:06.866Z,81.91
2022-11-21T23:48:34.760Z,81.17
2022-11-21T23:51:02.620Z,81.42
2022-11-21T23:53:31.954Z,81.23
2022-11-21T23:56:02.457Z,80.98
2022-11-21T23:58:30.313Z,81.39
